Angelina County Airport
KLFK : now visible

Airfield :











YOU CAN JOIN US ON...

 
LOGIN :

Register | Disclaimer

   EN    FR    IT 

 









Legend :    VFR   Marginal VFR   IFR   Intensive IFR   Very Intensive IFR
Visi :
Ceiling :
>= 8 km
>= 3000ft
5 to 8 km
1000 to 3000 ft
1500m to 5 km
500 to 1000 ft
800 to 1500m
200 to 500 ft
< 800m
< 200 ft
Symbols :   Thunderstorms  Fog  Heavy snow  Heavy precipitations  Wind > 20 kt






- Airport Elevation : 296 ft


KLFK - Angelina County

CURRENT METAR :
  • 101253Z AUTO 04008KT 10SM CLR 16/13 A3006 RMK AO2 SLP177 T01560128 $

EXPIRED METARs :
  • 101153Z AUTO 01004KT 10SM CLR 16/14 A3003 RMK AO2 SLP165 60000 70092 T01560139 10183 20156 53024 $
  • 101053Z AUTO 36003KT 10SM CLR 16/14 A3000 RMK AO2 SLP156 T01610144

TAF KLFK
Valid from the 10 at 12:00 until the 11 at 12:00 UTC


101143Z 1012/1112 02006KT P6SM BKN015
FM101300 03010KT P6SM SCT025 SCT050 BKN120
FM101500 06010KT P6SM BKN250
FM110000 08004KT P6SM FEW250
FM110300 11005KT P6SM SKC
FM110700 12007KT P6SM SCT250
FM111100 11009KT P6SM OVC250



MET'MAP, your aeronautical weather chart ! - Copyright ORBIFLY December 2007 - Disclaimer

ORBIFLY MET'MAP TEAM :

Programming & Development : Alexandra Zaïnal
Concept & original design : Baudouin d'Aumeries
Assistance for programming : Marc-Olivier Méhu
Technical & hardware support : Manuel Goepfert

Contact : metmap@orbifly.com




SOURCES & CREDITS :

   NOAA       Earth
Advisory